Home   Weather   Germany   Wermelskirchen   Past weeks
Flag for Germany

Past Weather in Wermelskirchen, North Rhine-Westphalia, Germany — Yesterday and Last 2 Weeks

Currently: 64 °F. Light rain. Scattered clouds. (Weather station: Koeln / Bonn, Germany). See more current weather

Past Weather in Wermelskirchen — Graph

°F

Wermelskirchen Temperature Yesterday

Maximum temperature yesterday: 81 °F (at 4:50 pm)
Minimum temperature yesterday: 55 °F (at 6:20 am)
Average temperature yesterday: 69 °F

High & Low Weather Summary for the Past Weeks

 TemperatureHumidityPressure
High81 °F (Jul 18, 4:20 pm)100% (Jul 10, 3:20 am)30.27 "Hg (Jul 10, 3:20 am)
Low50 °F (Jul 20, 5:50 am)39% (Jul 22, 12:50 pm)29.74 "Hg (Jul 14, 7:50 pm)
Average66 °F78%30.04 "Hg
* Reported Jul 9 4:20 pm — Jul 24 4:20 pm, Wermelskirchen. Weather by CustomWeather, © 2021

Note: Actual official high and low records may vary slightly from our data, if they occured in-between our weather recording intervals... More about our weather records

Wermelskirchen Weather History for the Previous 24 Hours

Scroll right to see more
 ConditionsComfort  
Time TempWeatherWind HumidityBarometerVisibility
4:20 pm
Sat, Jul 24
64 °FLight rain. Partly sunny.7 mph94%29.83 "HgN/A
3:50 pm66 °FLight rain. Partly sunny.3 mph94%29.83 "Hg6 mi
3:20 pm66 °FRain. Partly sunny.7 mph88%29.83 "Hg5 mi
2:50 pm66 °FLight rain. Partly sunny.5 mph94%29.83 "HgN/A
1:50 pm66 °FLight rain. Passing clouds.3 mph88%29.80 "HgN/A
1:20 pm66 °FRain. Clear.5 mph88%29.83 "HgN/A
12:50 pm70 °FLight rain. Clear.7 mph73%29.80 "HgN/A
12:20 pm72 °FPassing clouds.5 mph65%29.80 "HgN/A
11:50 am72 °FSunny.8 mph69%29.80 "Hg10 mi
11:20 am72 °FPassing clouds.5 mph69%29.80 "HgN/A
10:50 am70 °FLight rain. Clear.3 mph73%29.77 "HgN/A
10:20 am70 °FSunny.6 mph73%29.80 "Hg10 mi
9:50 am70 °FPassing clouds.6 mph69%29.80 "HgN/A
8:50 am68 °FPassing clouds.5 mph73%29.80 "HgN/A
8:20 am66 °FSunny.2 mph78%29.80 "Hg10 mi
7:50 am64 °FSunny.1 mph83%29.80 "Hg10 mi
7:20 am63 °FSunny.1 mph83%29.83 "Hg10 mi
6:50 am61 °FSunny.6 mph88%29.83 "Hg10 mi
6:20 am59 °FSunny.5 mph88%29.83 "Hg10 mi
5:50 am57 °FPassing clouds.3 mph94%29.83 "HgN/A
5:20 am57 °FPassing clouds.3 mph88%29.83 "HgN/A
4:50 am57 °FClear.2 mph94%29.83 "Hg10 mi
4:20 am59 °FClear.1 mph88%29.86 "Hg10 mi
3:50 am59 °FPassing clouds.5 mph88%29.86 "HgN/A
3:20 am64 °FPassing clouds.3 mph73%29.86 "HgN/A
2:20 am66 °FPassing clouds.6 mph73%29.86 "HgN/A
1:50 am66 °FClear.7 mph73%29.89 "Hg10 mi
1:20 am66 °FClear.8 mph73%29.89 "Hg10 mi
12:50 am66 °FClear.9 mph73%29.89 "Hg10 mi
12:20 am66 °FClear.9 mph73%29.89 "Hg10 mi
11:50 pm
Fri, Jul 23
68 °FClear.8 mph69%29.89 "Hg10 mi
11:20 pm68 °FClear.7 mph69%29.89 "Hg10 mi
10:50 pm68 °FClear.9 mph69%29.92 "Hg10 mi
10:20 pm70 °FClear.8 mph69%29.92 "Hg10 mi
9:50 pm70 °FClear.7 mph69%29.92 "Hg10 mi
9:20 pm70 °FSunny.5 mph73%29.92 "Hg10 mi
8:50 pm73 °FSunny.3 mph65%29.92 "Hg10 mi
8:20 pm77 °FSunny.2 mph57%29.92 "Hg10 mi
7:50 pm77 °FSunny.2 mph51%29.92 "Hg10 mi
7:20 pm79 °FPassing clouds.3 mph48%29.92 "HgN/A
6:50 pm79 °FPassing clouds.3 mph45%29.95 "HgN/A
6:20 pm81 °FSunny.3 mph42%29.95 "Hg10 mi
5:50 pm79 °FSunny.2 mph45%29.95 "Hg10 mi
5:20 pm81 °FSunny.3 mph42%29.95 "Hg10 mi
Weather by CustomWeather, © 2021

See weather overview